createdAt,value
2023-01-29T00:00:05.492Z,4.75
2023-01-29T00:02:31.776Z,3.53
2023-01-29T00:04:59.146Z,4.32
2023-01-29T00:07:25.604Z,5.40
2023-01-29T00:09:51.890Z,3.75
2023-01-29T00:12:18.230Z,4.45
2023-01-29T00:14:44.507Z,5.88
2023-01-29T00:17:10.833Z,6.40
2023-01-29T00:19:37.136Z,8.13
2023-01-29T00:22:03.492Z,6.53
2023-01-29T00:24:29.869Z,4.60
2023-01-29T00:26:56.162Z,6.25
2023-01-29T00:29:22.452Z,6.38
2023-01-29T00:31:48.863Z,6.60
2023-01-29T00:34:15.241Z,3.83
2023-01-29T00:36:41.558Z,4.57
2023-01-29T00:39:08.018Z,4.93
2023-01-29T00:41:34.323Z,2.80
2023-01-29T00:44:01.483Z,6.65
2023-01-29T00:46:27.836Z,4.15
2023-01-29T00:48:54.153Z,5.63
2023-01-29T00:51:20.442Z,4.05
2023-01-29T00:53:48.261Z,4.63
2023-01-29T00:56:14.568Z,7.07
2023-01-29T00:58:40.914Z,5.47
2023-01-29T01:01:07.211Z,7.18
2023-01-29T01:03:33.520Z,7.43
2023-01-29T01:06:05.082Z,5.18
2023-01-29T01:08:31.582Z,5.80
2023-01-29T01:11:07.244Z,5.20
2023-01-29T01:13:34.658Z,4.38
2023-01-29T01:16:01.056Z,6.53
2023-01-29T01:18:30.863Z,4.82
2023-01-29T01:20:58.180Z,6.30
2023-01-29T01:23:24.575Z,8.10
2023-01-29T01:25:50.899Z,6.25
2023-01-29T01:28:17.240Z,4.85
2023-01-29T01:30:43.564Z,6.05
2023-01-29T01:33:09.873Z,6.28
2023-01-29T01:35:39.140Z,5.47
2023-01-29T01:38:05.469Z,5.60
2023-01-29T01:40:32.181Z,5.50
2023-01-29T01:43:00.583Z,4.15
2023-01-29T01:45:34.907Z,3.70
2023-01-29T01:48:11.459Z,5.63
2023-01-29T01:53:15.114Z,3.35
2023-01-29T01:55:47.434Z,5.03
2023-01-29T01:58:20.248Z,5.55
2023-01-29T02:00:46.635Z,5.28
2023-01-29T02:03:13.216Z,3.55
2023-01-29T02:05:40.948Z,7.78
2023-01-29T02:08:07.360Z,5.55
2023-01-29T02:10:43.460Z,4.95
2023-01-29T02:13:10.765Z,4.35
2023-01-29T02:15:37.096Z,6.88
2023-01-29T02:18:03.579Z,5.25
2023-01-29T02:20:31.754Z,7.05
2023-01-29T02:23:19.556Z,5.40
2023-01-29T02:25:48.235Z,4.50
2023-01-29T02:28:32.523Z,6.03
2023-01-29T02:31:24.373Z,5.80
2023-01-29T02:36:44.922Z,5.57
2023-01-29T02:39:23.123Z,7.00
2023-01-29T02:41:50.203Z,9.00
2023-01-29T02:44:27.098Z,9.07
2023-01-29T02:47:04.507Z,7.30
2023-01-29T02:49:49.066Z,6.68
2023-01-29T02:52:31.254Z,8.23
2023-01-29T02:55:07.725Z,5.85
2023-01-29T02:57:37.933Z,11.32
2023-01-29T03:00:14.409Z,6.53
2023-01-29T03:02:55.216Z,6.43
2023-01-29T03:05:30.827Z,9.52
2023-01-29T03:08:03.878Z,6.82
2023-01-29T03:10:55.684Z,8.70
2023-01-29T03:13:40.899Z,8.82
2023-01-29T03:16:26.793Z,5.90
2023-01-29T03:21:36.435Z,5.88
2023-01-29T03:24:05.600Z,5.57
2023-01-29T03:26:31.972Z,6.03
2023-01-29T03:28:59.844Z,5.80
2023-01-29T03:31:27.050Z,7.07
2023-01-29T03:34:12.544Z,6.03
2023-01-29T03:36:50.208Z,4.05
2023-01-29T03:39:17.309Z,6.63
2023-01-29T03:41:55.867Z,6.30
2023-01-29T03:44:33.061Z,6.38
2023-01-29T03:47:22.703Z,4.78
2023-01-29T03:50:25.427Z,7.35
2023-01-29T03:53:00.722Z,6.47
2023-01-29T03:55:52.620Z,5.68
2023-01-29T03:58:40.892Z,5.50
2023-01-29T04:03:49.329Z,8.18
2023-01-29T04:08:55.618Z,5.60
2023-01-29T04:11:24.807Z,6.57
2023-01-29T04:13:52.159Z,7.30
2023-01-29T04:16:27.079Z,4.28
2023-01-29T04:18:54.595Z,7.07
2023-01-29T04:21:21.479Z,8.00
2023-01-29T04:23:47.792Z,7.97
2023-01-29T04:26:32.027Z,6.80
2023-01-29T04:29:10.391Z,8.15
2023-01-29T04:31:56.338Z,7.50
2023-01-29T04:34:29.430Z,5.82
2023-01-29T04:37:01.416Z,5.00
2023-01-29T04:39:48.193Z,9.73
2023-01-29T04:42:33.843Z,4.13
2023-01-29T04:45:41.793Z,7.25
2023-01-29T04:48:15.571Z,6.35
2023-01-29T04:50:52.301Z,6.32
2023-01-29T04:53:29.110Z,7.95
2023-01-29T04:56:07.313Z,5.60
2023-01-29T04:58:37.814Z,6.55
2023-01-29T05:01:08.912Z,7.53
2023-01-29T05:03:37.633Z,8.80
2023-01-29T05:06:05.227Z,8.88
2023-01-29T05:10:59.846Z,5.72
2023-01-29T05:13:28.703Z,8.73
2023-01-29T05:16:04.085Z,8.50
2023-01-29T05:18:31.777Z,7.85
2023-01-29T05:23:27.440Z,5.95
2023-01-29T05:25:53.808Z,7.97
2023-01-29T05:28:20.085Z,7.95
2023-01-29T05:30:48.609Z,7.15
2023-01-29T05:33:16.115Z,5.78
2023-01-29T05:35:42.638Z,9.95
2023-01-29T05:38:09.542Z,7.28
2023-01-29T05:40:36.224Z,7.88
2023-01-29T05:43:02.559Z,8.70
2023-01-29T05:45:28.831Z,10.00
2023-01-29T05:47:59.251Z,7.68
2023-01-29T05:50:26.677Z,8.93
2023-01-29T05:53:00.550Z,10.23
2023-01-29T05:55:27.976Z,6.22
2023-01-29T05:57:54.284Z,10.88
2023-01-29T06:00:20.834Z,8.25
2023-01-29T06:02:47.185Z,9.48
2023-01-29T06:05:13.557Z,9.43
2023-01-29T06:07:40.816Z,9.02
2023-01-29T06:10:09.181Z,8.13
2023-01-29T06:12:35.477Z,10.90
2023-01-29T06:15:01.781Z,5.63
2023-01-29T06:17:28.107Z,5.28
2023-01-29T06:19:54.405Z,8.48
2023-01-29T06:22:20.681Z,10.18
2023-01-29T06:24:46.962Z,9.20
2023-01-29T06:27:13.325Z,9.05
2023-01-29T06:29:39.609Z,10.57
2023-01-29T06:32:06.082Z,11.23
2023-01-29T06:34:32.401Z,9.77
2023-01-29T06:36:58.688Z,9.00
2023-01-29T06:39:25.010Z,5.18
2023-01-29T06:41:51.309Z,9.50
2023-01-29T06:44:17.735Z,14.77
2023-01-29T06:46:44.053Z,9.77
2023-01-29T06:49:10.540Z,11.57
2023-01-29T06:51:36.838Z,10.95
2023-01-29T06:54:03.336Z,12.77
2023-01-29T06:56:29.671Z,12.20
2023-01-29T06:58:55.964Z,6.03
2023-01-29T07:01:35.273Z,14.65
2023-01-29T07:04:02.572Z,9.77
2023-01-29T07:06:29.416Z,9.90
2023-01-29T07:08:56.255Z,10.32
2023-01-29T07:11:22.549Z,10.73
2023-01-29T07:13:48.816Z,13.13
2023-01-29T07:16:15.183Z,8.32
2023-01-29T07:18:41.531Z,11.60
2023-01-29T07:21:07.826Z,12.48
2023-01-29T07:23:35.024Z,13.15
2023-01-29T07:26:03.200Z,11.27
2023-01-29T07:28:29.545Z,13.15
2023-01-29T07:30:59.267Z,9.02
2023-01-29T07:33:26.183Z,10.73
2023-01-29T07:35:53.125Z,9.15
2023-01-29T07:38:19.599Z,7.20
2023-01-29T07:40:46.026Z,11.02
2023-01-29T07:43:12.599Z,11.05
2023-01-29T07:45:40.206Z,15.93
2023-01-29T07:48:10.268Z,12.02
2023-01-29T07:50:37.543Z,12.50
2023-01-29T07:53:04.089Z,11.52
2023-01-29T07:55:30.792Z,13.70
2023-01-29T07:58:02.343Z,14.40
2023-01-29T08:00:29.969Z,9.88
2023-01-29T08:05:34.196Z,5.93
2023-01-29T08:08:06.951Z,9.15
2023-01-29T08:10:35.224Z,11.02
2023-01-29T08:15:29.192Z,6.47
2023-01-29T08:17:58.128Z,14.48
2023-01-29T08:20:24.839Z,11.55
2023-01-29T08:22:59.146Z,14.05
2023-01-29T08:25:25.830Z,12.55
2023-01-29T08:27:52.321Z,14.77
2023-01-29T08:30:18.752Z,12.05
2023-01-29T08:32:45.052Z,6.95
2023-01-29T08:35:11.357Z,10.68
2023-01-29T08:37:37.656Z,17.52
2023-01-29T08:40:04.351Z,12.65
2023-01-29T08:42:30.648Z,15.25
2023-01-29T08:44:56.941Z,15.48
2023-01-29T08:47:23.240Z,6.32
2023-01-29T08:49:49.528Z,12.40
2023-01-29T08:52:15.817Z,10.32
2023-01-29T08:54:42.111Z,13.63
2023-01-29T08:57:08.422Z,12.27
2023-01-29T08:59:34.709Z,10.85
2023-01-29T09:02:01.045Z,11.63
2023-01-29T09:04:27.397Z,11.50
2023-01-29T09:06:53.706Z,10.45
2023-01-29T09:09:20.003Z,10.48
2023-01-29T09:11:46.313Z,14.98
2023-01-29T09:14:12.601Z,13.07
2023-01-29T09:16:38.957Z,10.45
2023-01-29T09:19:05.248Z,16.52
2023-01-29T09:21:31.585Z,13.02
2023-01-29T09:23:57.904Z,12.93
2023-01-29T09:26:24.241Z,13.15
2023-01-29T09:28:50.552Z,10.80
2023-01-29T09:31:16.952Z,7.00
2023-01-29T09:33:43.254Z,15.88
2023-01-29T09:36:09.721Z,14.10
2023-01-29T09:38:36.004Z,12.73
2023-01-29T09:41:23.913Z,11.18
2023-01-29T09:44:00.152Z,12.35
2023-01-29T09:46:32.102Z,12.27
2023-01-29T09:49:15.488Z,13.35
2023-01-29T09:51:46.509Z,9.73
2023-01-29T09:54:19.392Z,11.73
2023-01-29T09:56:46.386Z,15.98
2023-01-29T09:59:17.216Z,10.32
2023-01-29T10:01:55.166Z,11.75
2023-01-29T10:04:36.489Z,15.45
2023-01-29T10:07:10.219Z,12.52
2023-01-29T10:12:26.448Z,12.13
2023-01-29T10:15:17.149Z,16.73
2023-01-29T10:17:43.569Z,17.20
2023-01-29T10:20:34.011Z,13.60
2023-01-29T10:23:10.488Z,13.45
2023-01-29T10:25:40.660Z,13.25
2023-01-29T10:28:34.608Z,14.63
2023-01-29T10:31:06.714Z,11.07
2023-01-29T10:33:49.659Z,16.00
2023-01-29T10:36:36.083Z,11.15
2023-01-29T10:39:02.455Z,12.63
2023-01-29T10:41:40.470Z,10.00
2023-01-29T10:44:13.039Z,15.82
2023-01-29T10:46:52.144Z,10.85
2023-01-29T10:49:41.540Z,12.68
2023-01-29T10:52:29.406Z,11.10
2023-01-29T10:55:17.780Z,12.00
2023-01-29T10:57:58.390Z,9.15
2023-01-29T11:00:33.573Z,12.32
2023-01-29T11:03:27.828Z,8.60
2023-01-29T11:06:12.785Z,10.57
2023-01-29T11:08:47.854Z,9.10
2023-01-29T11:11:16.611Z,11.43
2023-01-29T11:14:05.277Z,9.25
2023-01-29T11:16:31.632Z,9.27
2023-01-29T11:19:00.206Z,9.90
2023-01-29T11:21:28.645Z,8.18
2023-01-29T11:24:13.390Z,9.50
2023-01-29T11:26:42.531Z,8.88
2023-01-29T11:29:34.247Z,8.57
2023-01-29T11:32:05.432Z,6.70
2023-01-29T11:34:31.725Z,8.68
2023-01-29T11:37:00.435Z,7.63
2023-01-29T11:39:28.368Z,7.72
2023-01-29T11:42:00.473Z,9.15
2023-01-29T11:44:29.740Z,6.63
2023-01-29T11:47:21.631Z,7.18
2023-01-29T11:49:57.029Z,6.65
2023-01-29T11:52:44.114Z,7.47
2023-01-29T11:55:17.938Z,8.43
2023-01-29T11:57:50.441Z,5.95
2023-01-29T12:00:24.552Z,8.45
2023-01-29T12:02:57.468Z,7.55
2023-01-29T12:05:26.177Z,7.85
2023-01-29T12:07:58.231Z,7.53
2023-01-29T12:10:39.514Z,8.32
2023-01-29T12:13:14.999Z,6.15
2023-01-29T12:15:42.654Z,6.75
2023-01-29T12:18:40.244Z,4.72
2023-01-29T12:21:39.942Z,9.05
2023-01-29T12:24:30.797Z,6.53
2023-01-29T12:27:05.316Z,7.35
2023-01-29T12:29:37.626Z,8.18
2023-01-29T12:32:26.197Z,6.97
2023-01-29T12:35:01.488Z,5.32
2023-01-29T12:39:46.668Z,3.80
2023-01-29T12:42:21.133Z,5.28
2023-01-29T12:44:50.973Z,8.10
2023-01-29T12:47:26.343Z,6.30
2023-01-29T12:49:57.029Z,6.47
2023-01-29T12:52:32.845Z,5.13
2023-01-29T12:55:28.604Z,6.45
2023-01-29T12:57:59.120Z,6.32
2023-01-29T13:00:39.468Z,7.30
2023-01-29T13:03:20.913Z,6.45
2023-01-29T13:05:51.780Z,6.57
2023-01-29T13:08:29.077Z,4.60
2023-01-29T13:10:59.495Z,5.90
2023-01-29T13:13:33.127Z,6.70
2023-01-29T13:16:01.324Z,4.25
2023-01-29T13:18:43.001Z,4.20
2023-01-29T13:21:33.705Z,5.95
2023-01-29T13:24:05.271Z,7.15
2023-01-29T13:26:31.681Z,7.38
2023-01-29T13:28:58.569Z,5.95
2023-01-29T13:31:29.407Z,5.45
2023-01-29T13:34:17.173Z,6.53
2023-01-29T13:36:46.796Z,5.43
2023-01-29T13:39:23.529Z,7.07
2023-01-29T13:41:51.527Z,8.43
2023-01-29T13:44:21.873Z,5.70
2023-01-29T13:49:28.544Z,6.80
2023-01-29T13:51:55.068Z,8.55
2023-01-29T13:54:25.910Z,7.18
2023-01-29T13:56:55.209Z,6.53
2023-01-29T13:59:25.214Z,7.15
2023-01-29T14:01:51.480Z,8.43
2023-01-29T14:04:20.490Z,9.35
2023-01-29T14:06:52.433Z,10.85
2023-01-29T14:09:36.762Z,9.40
2023-01-29T14:12:23.532Z,8.70
2023-01-29T14:14:55.994Z,6.65
2023-01-29T14:17:25.495Z,9.00
2023-01-29T14:20:16.277Z,7.47
2023-01-29T14:22:43.103Z,11.73
2023-01-29T14:25:18.397Z,5.90
2023-01-29T14:27:50.988Z,12.57
2023-01-29T14:30:19.382Z,4.50
2023-01-29T14:32:50.983Z,8.60
2023-01-29T14:35:19.847Z,7.55
2023-01-29T14:37:50.383Z,11.25
2023-01-29T14:40:19.666Z,8.32
2023-01-29T14:42:58.091Z,9.05
2023-01-29T14:45:28.160Z,5.65
2023-01-29T14:48:00.398Z,6.63
2023-01-29T14:50:32.513Z,7.85
2023-01-29T14:53:00.088Z,8.57
2023-01-29T14:58:10.293Z,6.78
2023-01-29T15:00:38.706Z,8.55
2023-01-29T15:03:16.344Z,6.47
2023-01-29T15:05:43.326Z,8.98
2023-01-29T15:08:31.596Z,6.95
2023-01-29T15:11:02.527Z,7.70
2023-01-29T15:13:47.387Z,8.60
2023-01-29T15:16:24.100Z,8.63
2023-01-29T15:18:56.228Z,11.60
2023-01-29T15:21:22.536Z,8.95
2023-01-29T15:24:04.517Z,11.43
2023-01-29T15:26:31.090Z,9.23
2023-01-29T15:29:04.213Z,6.78
2023-01-29T15:34:04.201Z,9.05
2023-01-29T15:36:31.617Z,9.40
2023-01-29T15:39:15.195Z,10.77
2023-01-29T15:41:42.234Z,11.90
2023-01-29T15:44:14.093Z,13.32
2023-01-29T15:46:43.959Z,15.82
2023-01-29T15:49:18.713Z,9.95
2023-01-29T15:51:46.799Z,11.57
2023-01-29T15:56:46.775Z,11.20
2023-01-29T15:59:19.520Z,10.50
2023-01-29T16:01:45.946Z,10.40
2023-01-29T16:04:22.132Z,10.25
2023-01-29T16:06:52.710Z,13.30
2023-01-29T16:09:22.114Z,11.98
2023-01-29T16:11:49.337Z,11.45
2023-01-29T16:14:18.954Z,11.55
2023-01-29T16:16:45.300Z,11.43
2023-01-29T16:19:29.152Z,10.00
2023-01-29T16:22:08.384Z,11.63
2023-01-29T16:24:36.937Z,15.98
2023-01-29T16:27:13.719Z,14.20
2023-01-29T16:29:40.230Z,11.80
2023-01-29T16:32:08.808Z,13.13
2023-01-29T16:34:41.177Z,12.18
2023-01-29T16:39:56.874Z,12.73
2023-01-29T16:42:31.044Z,9.45
2023-01-29T16:45:00.107Z,13.65
2023-01-29T16:47:35.810Z,6.30
2023-01-29T16:50:05.571Z,9.68
2023-01-29T16:52:33.887Z,17.50
2023-01-29T16:55:12.194Z,12.10
2023-01-29T16:57:40.119Z,13.80
2023-01-29T17:00:19.759Z,13.43
2023-01-29T17:02:46.267Z,11.02
2023-01-29T17:05:23.433Z,11.05
2023-01-29T17:07:50.064Z,13.10
2023-01-29T17:10:21.283Z,9.52
2023-01-29T17:12:56.011Z,11.23
2023-01-29T17:15:46.343Z,11.30
2023-01-29T17:18:19.266Z,9.55
2023-01-29T17:20:45.647Z,9.30
2023-01-29T17:23:11.977Z,9.52
2023-01-29T17:25:38.376Z,15.38
2023-01-29T17:28:05.204Z,13.50
2023-01-29T17:30:34.089Z,10.63
2023-01-29T17:33:01.027Z,9.15
2023-01-29T17:35:27.326Z,7.22
2023-01-29T17:37:53.672Z,8.25
2023-01-29T17:40:34.987Z,14.88
2023-01-29T17:43:01.269Z,10.13
2023-01-29T17:45:27.680Z,9.38
2023-01-29T17:47:54.120Z,14.30
2023-01-29T17:50:26.914Z,8.82
2023-01-29T17:52:53.325Z,10.82
2023-01-29T17:55:21.468Z,17.17
2023-01-29T17:57:47.952Z,12.98
2023-01-29T18:00:20.301Z,11.35
2023-01-29T18:02:46.839Z,9.68
2023-01-29T18:05:14.290Z,11.38
2023-01-29T18:07:43.158Z,11.65
2023-01-29T18:10:18.583Z,11.43
2023-01-29T18:12:45.344Z,9.80
2023-01-29T18:15:12.538Z,9.05
2023-01-29T18:17:39.480Z,9.32
2023-01-29T18:20:32.457Z,8.63
2023-01-29T18:22:58.775Z,10.65
2023-01-29T18:25:25.862Z,9.35
2023-01-29T18:27:52.301Z,16.67
2023-01-29T18:30:18.874Z,13.35
2023-01-29T18:32:45.207Z,7.15
2023-01-29T18:35:11.492Z,8.52
2023-01-29T18:37:37.813Z,10.90
2023-01-29T18:40:04.622Z,9.98
2023-01-29T18:42:32.170Z,13.85
2023-01-29T18:47:24.761Z,8.48
2023-01-29T18:49:51.088Z,12.73
2023-01-29T18:52:18.324Z,14.18
2023-01-29T18:54:44.615Z,10.25
2023-01-29T18:58:26.308Z,11.80
2023-01-29T18:59:57.257Z,7.68
2023-01-29T19:02:23.871Z,12.13
2023-01-29T19:04:50.208Z,15.27
2023-01-29T19:07:16.489Z,16.45
2023-01-29T19:09:42.814Z,10.00
2023-01-29T19:12:09.111Z,13.80
2023-01-29T19:14:35.406Z,13.13
2023-01-29T19:17:01.770Z,8.05
2023-01-29T19:19:28.615Z,10.63
2023-01-29T19:21:55.025Z,12.20
2023-01-29T19:24:22.194Z,9.45
2023-01-29T19:26:49.047Z,9.15
2023-01-29T19:29:15.580Z,8.57
2023-01-29T19:31:42.819Z,6.93
2023-01-29T19:34:09.261Z,10.82
2023-01-29T19:36:36.379Z,9.48
2023-01-29T19:39:03.386Z,8.48
2023-01-29T19:41:29.718Z,12.85
2023-01-29T19:43:56.205Z,13.82
2023-01-29T19:46:22.553Z,6.93
2023-01-29T19:48:48.895Z,12.02
2023-01-29T19:51:15.220Z,7.53
2023-01-29T19:53:42.337Z,8.35
2023-01-29T19:56:11.125Z,9.02
2023-01-29T19:58:38.032Z,6.65
2023-01-29T20:01:07.199Z,11.10
2023-01-29T20:03:33.594Z,8.05
2023-01-29T20:06:04.985Z,7.55
2023-01-29T20:08:32.621Z,6.90
2023-01-29T20:13:25.220Z,5.72
2023-01-29T20:15:52.207Z,7.00
2023-01-29T20:18:18.948Z,7.43
2023-01-29T20:20:50.421Z,7.55
2023-01-29T20:23:28.020Z,5.50
2023-01-29T20:26:02.550Z,10.35
2023-01-29T20:28:29.040Z,8.60
2023-01-29T20:30:55.468Z,7.65
2023-01-29T20:33:22.258Z,6.78
2023-01-29T20:35:56.490Z,6.38
2023-01-29T20:38:23.397Z,5.38
2023-01-29T20:40:49.907Z,7.57
2023-01-29T20:43:16.278Z,4.95
2023-01-29T20:45:42.970Z,11.40
2023-01-29T20:48:09.358Z,5.45
2023-01-29T20:50:35.683Z,5.60
2023-01-29T20:53:01.985Z,12.10
2023-01-29T20:55:28.475Z,6.28
2023-01-29T20:58:06.460Z,8.48
2023-01-29T21:00:33.440Z,11.43
2023-01-29T21:02:59.829Z,4.68
2023-01-29T21:05:26.142Z,6.80
2023-01-29T21:07:52.466Z,8.90
2023-01-29T21:10:19.017Z,7.07
2023-01-29T21:12:45.494Z,7.00
2023-01-29T21:15:11.825Z,4.63
2023-01-29T21:17:38.155Z,8.30
2023-01-29T21:20:04.843Z,4.63
2023-01-29T21:22:31.728Z,5.95
2023-01-29T21:24:58.015Z,6.65
2023-01-29T21:27:24.649Z,4.45
2023-01-29T21:29:50.956Z,9.75
2023-01-29T21:32:17.270Z,5.47
2023-01-29T21:34:43.542Z,6.32
2023-01-29T21:37:09.878Z,5.88
2023-01-29T21:39:36.218Z,6.50
2023-01-29T21:42:02.610Z,5.78
2023-01-29T21:44:28.892Z,5.35
2023-01-29T21:46:55.195Z,7.15
2023-01-29T21:49:21.735Z,7.32
2023-01-29T21:51:48.088Z,6.07
2023-01-29T21:54:14.490Z,6.57
2023-01-29T21:56:40.873Z,8.40
2023-01-29T21:59:07.526Z,8.25
2023-01-29T22:01:37.617Z,8.07
2023-01-29T22:04:04.989Z,10.10
2023-01-29T22:06:31.309Z,7.22
2023-01-29T22:08:57.641Z,10.48
2023-01-29T22:11:24.093Z,9.82
2023-01-29T22:13:50.392Z,11.48
2023-01-29T22:16:16.714Z,7.13
2023-01-29T22:18:43.036Z,5.80
2023-01-29T22:21:09.366Z,7.43
2023-01-29T22:23:35.666Z,8.07
2023-01-29T22:26:06.485Z,7.90
2023-01-29T22:28:32.912Z,8.88
2023-01-29T22:31:03.992Z,8.23
2023-01-29T22:33:30.596Z,6.75
2023-01-29T22:35:57.511Z,7.88
2023-01-29T22:38:23.944Z,11.82
2023-01-29T22:40:51.765Z,11.43
2023-01-29T22:43:18.113Z,7.63
2023-01-29T22:45:44.557Z,6.25
2023-01-29T22:48:11.744Z,5.43
2023-01-29T22:50:38.839Z,6.97
2023-01-29T22:53:05.804Z,5.72
2023-01-29T22:55:32.655Z,8.93
2023-01-29T22:57:59.194Z,11.30
2023-01-29T23:00:25.865Z,6.07
2023-01-29T23:02:52.221Z,7.10
2023-01-29T23:05:18.566Z,8.52
2023-01-29T23:07:45.339Z,6.20
2023-01-29T23:10:13.922Z,6.45
2023-01-29T23:12:40.318Z,5.07
2023-01-29T23:15:07.273Z,8.23
2023-01-29T23:17:33.844Z,6.47
2023-01-29T23:20:00.179Z,5.82
2023-01-29T23:22:26.465Z,5.70
2023-01-29T23:24:52.776Z,5.50
2023-01-29T23:27:19.115Z,8.30
2023-01-29T23:29:47.246Z,9.27
2023-01-29T23:32:17.250Z,7.53
2023-01-29T23:34:43.540Z,9.60
2023-01-29T23:37:09.906Z,5.25
2023-01-29T23:39:36.199Z,9.15
2023-01-29T23:42:02.992Z,6.28
2023-01-29T23:44:29.646Z,7.47
2023-01-29T23:46:56.076Z,5.88
2023-01-29T23:49:22.413Z,7.53
2023-01-29T23:51:50.052Z,7.40
2023-01-29T23:56:44.338Z,7.45
2023-01-29T23:59:11.086Z,5.60
